Time;durP1;ratioP1;P1;durP2;ratioP2;P2;SDS_P1;SDS_P2;PMS_P1;PMS_P2;Temp;Humidity;BMP_temperature;BMP_pressure;BME280_temperature;BME280_humidity;BME280_pressure;Samples;Min_cycle;Max_cycle;Signal;HPM_P1;HPM_P2
2023/04/15 00:01:24;;;;;;;9.57;6.07;;;;;;;;;;4957575;28;20058;-82
2023/04/15 00:03:51;;;;;;;8.27;5.97;;;;;;;;;;4972235;28;20125;-82
2023/04/15 00:06:18;;;;;;;8.45;5.82;;;;;;;;;;4966001;28;20137;-82
2023/04/15 00:08:44;;;;;;;9.80;5.93;;;;;;;;;;4972944;28;20177;-82
2023/04/15 00:11:11;;;;;;;11.10;5.60;;;;;;;;;;4973296;28;20076;-81
2023/04/15 00:13:37;;;;;;;9.85;5.85;;;;;;;;;;4962902;28;20042;-81
2023/04/15 00:16:03;;;;;;;11.57;6.00;;;;;;;;;;4954779;28;20051;-81
2023/04/15 00:18:30;;;;;;;9.57;6.00;;;;;;;;;;4972956;28;20495;-81
2023/04/15 00:20:56;;;;;;;8.80;5.72;;;;;;;;;;4971701;28;20130;-81
2023/04/15 00:23:22;;;;;;;9.40;5.75;;;;;;;;;;4971272;28;20049;-81
2023/04/15 00:25:48;;;;;;;8.82;5.85;;;;;;;;;;4955755;28;20063;-81
2023/04/15 00:28:14;;;;;;;8.90;5.82;;;;;;;;;;4973021;28;20074;-81
2023/04/15 00:30:41;;;;;;;10.48;6.57;;;;;;;;;;4975072;28;20047;-81
2023/04/15 00:33:07;;;;;;;9.55;6.60;;;;;;;;;;4972854;28;20118;-82
2023/04/15 00:35:34;;;;;;;10.07;6.35;;;;;;;;;;4968040;28;20119;-82
2023/04/15 00:38:00;;;;;;;9.65;6.13;;;;;;;;;;4971171;28;20558;-81
2023/04/15 00:40:26;;;;;;;9.73;6.35;;;;;;;;;;4958816;28;20055;-81
2023/04/15 00:42:53;;;;;;;9.02;5.97;;;;;;;;;;4974102;28;20051;-82
2023/04/15 00:45:19;;;;;;;10.18;5.50;;;;;;;;;;4966492;28;20101;-82
2023/04/15 00:47:45;;;;;;;10.88;6.72;;;;;;;;;;4961264;28;20054;-82
2023/04/15 00:50:12;;;;;;;10.80;6.28;;;;;;;;;;4969039;28;20117;-82
2023/04/15 00:52:38;;;;;;;11.18;6.80;;;;;;;;;;4960272;28;20513;-82
2023/04/15 00:55:05;;;;;;;11.48;6.63;;;;;;;;;;4962296;28;20134;-82
2023/04/15 00:57:31;;;;;;;10.50;6.78;;;;;;;;;;4972867;28;20470;-81
2023/04/15 00:59:58;;;;;;;12.82;6.70;;;;;;;;;;4952353;28;20047;-81
2023/04/15 01:02:26;;;;;;;10.40;6.65;;;;;;;;;;4970411;28;20113;-82
2023/04/15 01:04:52;;;;;;;8.73;6.22;;;;;;;;;;4969208;28;20046;-81
2023/04/15 01:07:18;;;;;;;13.70;6.72;;;;;;;;;;4954960;28;20129;-82
2023/04/15 01:09:44;;;;;;;10.98;6.28;;;;;;;;;;4971536;28;20035;-82
2023/04/15 01:12:12;;;;;;;10.50;6.88;;;;;;;;;;4953169;28;20047;-80
2023/04/15 01:14:39;;;;;;;10.20;6.60;;;;;;;;;;4972547;28;20069;-80
2023/04/15 01:17:05;;;;;;;10.90;6.90;;;;;;;;;;4961143;28;20145;-79
2023/04/15 01:19:31;;;;;;;9.82;6.35;;;;;;;;;;4964559;28;20778;-80
2023/04/15 01:21:57;;;;;;;11.80;7.10;;;;;;;;;;4955246;28;20133;-80
2023/04/15 01:24:23;;;;;;;10.57;6.38;;;;;;;;;;4971302;28;20042;-80
2023/04/15 01:26:49;;;;;;;10.40;6.72;;;;;;;;;;4963022;28;20042;-80
2023/04/15 01:29:15;;;;;;;11.23;7.07;;;;;;;;;;4954119;28;20054;-80
2023/04/15 01:31:49;;;;;;;11.80;7.10;;;;;;;;;;4970302;28;20492;-80
2023/04/15 01:34:15;;;;;;;10.25;7.38;;;;;;;;;;4952645;28;20079;-80
2023/04/15 01:36:41;;;;;;;11.93;7.90;;;;;;;;;;4972154;28;20047;-80
2023/04/15 01:39:07;;;;;;;11.32;7.30;;;;;;;;;;4952672;28;20051;-80
2023/04/15 01:41:33;;;;;;;10.85;7.43;;;;;;;;;;4944256;28;20421;-80
2023/04/15 01:44:00;;;;;;;13.20;8.07;;;;;;;;;;4956074;28;20051;-80
2023/04/15 01:46:26;;;;;;;12.85;8.10;;;;;;;;;;4970071;28;20085;-80
2023/04/15 01:48:52;;;;;;;11.90;8.13;;;;;;;;;;4971105;28;20030;-80
2023/04/15 01:51:18;;;;;;;12.48;8.27;;;;;;;;;;4953577;28;20411;-80
2023/04/15 01:53:44;;;;;;;13.80;9.13;;;;;;;;;;4951994;28;20415;-80
2023/04/15 01:56:10;;;;;;;14.85;8.65;;;;;;;;;;4970938;28;20491;-80
2023/04/15 01:58:36;;;;;;;12.88;8.82;;;;;;;;;;4971692;28;20121;-80
2023/04/15 02:01:03;;;;;;;15.55;9.50;;;;;;;;;;4967014;28;20130;-80
2023/04/15 02:03:29;;;;;;;11.88;8.95;;;;;;;;;;4951692;28;20054;-80
2023/04/15 02:05:55;;;;;;;15.05;9.90;;;;;;;;;;4971969;28;20521;-80
2023/04/15 02:08:21;;;;;;;13.73;9.55;;;;;;;;;;4970939;28;20495;-80
2023/04/15 02:10:47;;;;;;;12.73;8.88;;;;;;;;;;4955577;28;20491;-80
2023/04/15 02:13:14;;;;;;;13.05;9.18;;;;;;;;;;4957754;28;20047;-80
2023/04/15 02:15:40;;;;;;;12.15;9.38;;;;;;;;;;4963607;28;20058;-80
2023/04/15 02:18:06;;;;;;;14.68;9.95;;;;;;;;;;4973565;28;20133;-80
2023/04/15 02:20:33;;;;;;;15.20;10.23;;;;;;;;;;4973175;28;20062;-80
2023/04/15 02:22:59;;;;;;;13.85;10.02;;;;;;;;;;4974963;28;20464;-80
2023/04/15 02:25:25;;;;;;;15.20;10.93;;;;;;;;;;4968139;28;20051;-80
2023/04/15 02:27:52;;;;;;;15.15;10.68;;;;;;;;;;4953513;28;20039;-80
2023/04/15 02:30:18;;;;;;;17.48;10.98;;;;;;;;;;4945624;28;20059;-79
2023/04/15 02:32:44;;;;;;;16.10;11.30;;;;;;;;;;4970516;28;20046;-80
2023/04/15 02:35:10;;;;;;;17.38;11.48;;;;;;;;;;4950723;28;20514;-79
2023/04/15 02:37:42;;;;;;;16.17;11.07;;;;;;;;;;4947884;28;20051;-79
2023/04/15 02:40:10;;;;;;;16.23;11.40;;;;;;;;;;4945428;28;20070;-80
2023/04/15 02:42:37;;;;;;;14.45;11.32;;;;;;;;;;4955853;28;20062;-79
2023/04/15 02:45:03;;;;;;;18.67;11.35;;;;;;;;;;4973596;28;20137;-80
2023/04/15 02:47:29;;;;;;;15.48;11.38;;;;;;;;;;4957310;28;20051;-79
2023/04/15 02:49:57;;;;;;;15.48;11.45;;;;;;;;;;4972469;28;20493;-79
2023/04/15 02:52:23;;;;;;;15.88;11.70;;;;;;;;;;4949961;28;20051;-80
2023/04/15 02:54:49;;;;;;;16.60;11.18;;;;;;;;;;4959938;28;20499;-79
2023/04/15 02:57:15;;;;;;;17.08;11.50;;;;;;;;;;4965768;28;20051;-80
2023/04/15 02:59:41;;;;;;;14.43;12.10;;;;;;;;;;4969280;28;20047;-79
2023/04/15 03:02:07;;;;;;;16.50;12.65;;;;;;;;;;4972485;28;20049;-79
2023/04/15 03:04:33;;;;;;;15.75;12.63;;;;;;;;;;4974862;28;20090;-80
2023/04/15 03:07:01;;;;;;;17.08;11.98;;;;;;;;;;4954147;28;20046;-80
2023/04/15 03:09:27;;;;;;;18.33;12.93;;;;;;;;;;4975659;28;20521;-80
2023/04/15 03:11:53;;;;;;;15.98;12.43;;;;;;;;;;4964318;28;20047;-80
2023/04/15 03:14:19;;;;;;;20.83;13.10;;;;;;;;;;4968363;28;20134;-80
2023/04/15 03:16:45;;;;;;;13.95;11.82;;;;;;;;;;4969876;28;20047;-79
2023/04/15 03:19:11;;;;;;;18.70;13.05;;;;;;;;;;4955145;28;20401;-80
2023/04/15 03:21:37;;;;;;;17.13;13.07;;;;;;;;;;4944147;28;20097;-79
2023/04/15 03:24:03;;;;;;;16.40;12.73;;;;;;;;;;4974852;28;20043;-80
2023/04/15 03:26:30;;;;;;;16.98;12.13;;;;;;;;;;4968285;28;20049;-79
2023/04/15 03:28:57;;;;;;;16.45;12.50;;;;;;;;;;4970630;28;20042;-80
2023/04/15 03:31:23;;;;;;;17.55;12.38;;;;;;;;;;4976189;28;20130;-80
2023/04/15 03:33:49;;;;;;;18.83;13.07;;;;;;;;;;4969465;28;20162;-80
2023/04/15 03:36:15;;;;;;;16.05;12.00;;;;;;;;;;4971118;28;20051;-79
2023/04/15 03:38:41;;;;;;;18.45;12.75;;;;;;;;;;4973768;28;20094;-79
2023/04/15 03:41:08;;;;;;;17.58;12.48;;;;;;;;;;4953304;28;21287;-80
2023/04/15 03:43:34;;;;;;;17.67;12.30;;;;;;;;;;4953463;28;20085;-80
2023/04/15 03:46:01;;;;;;;18.30;12.43;;;;;;;;;;4973467;28;20399;-79
2023/04/15 03:48:27;;;;;;;15.77;12.25;;;;;;;;;;4969070;28;20399;-79
2023/04/15 03:50:53;;;;;;;17.48;12.52;;;;;;;;;;4970131;28;20050;-79
2023/04/15 03:53:19;;;;;;;17.95;13.43;;;;;;;;;;4972112;28;20054;-79
2023/04/15 03:55:45;;;;;;;16.27;12.93;;;;;;;;;;4973524;28;20053;-79
2023/04/15 03:58:11;;;;;;;19.65;13.00;;;;;;;;;;4973554;28;20057;-79
2023/04/15 04:00:38;;;;;;;17.27;13.63;;;;;;;;;;4972678;28;20042;-81
2023/04/15 04:03:04;;;;;;;18.40;13.35;;;;;;;;;;4952320;28;20070;-81
2023/04/15 04:05:30;;;;;;;16.45;12.52;;;;;;;;;;4974448;28;20159;-81
2023/04/15 04:07:56;;;;;;;16.25;13.00;;;;;;;;;;4970064;28;20487;-82
2023/04/15 04:10:22;;;;;;;15.10;12.63;;;;;;;;;;4975058;28;20062;-81
2023/04/15 04:12:48;;;;;;;15.43;12.10;;;;;;;;;;4969060;28;20488;-82
2023/04/15 04:15:14;;;;;;;16.08;12.60;;;;;;;;;;4967961;28;20101;-82
2023/04/15 04:17:41;;;;;;;16.95;13.00;;;;;;;;;;4967425;28;20035;-82
2023/04/15 04:20:07;;;;;;;15.82;12.77;;;;;;;;;;4973565;28;20039;-82
2023/04/15 04:22:40;;;;;;;16.10;12.93;;;;;;;;;;4970015;28;20410;-82
2023/04/15 04:25:07;;;;;;;17.80;13.60;;;;;;;;;;4956418;28;20503;-82
2023/04/15 04:27:33;;;;;;;18.67;12.80;;;;;;;;;;4956270;28;20115;-81
2023/04/15 04:29:59;;;;;;;19.83;14.05;;;;;;;;;;4969020;28;20038;-82
2023/04/15 04:32:25;;;;;;;18.85;13.30;;;;;;;;;;4939633;28;20466;-82
2023/04/15 04:34:51;;;;;;;17.55;13.05;;;;;;;;;;4965732;28;20046;-82
2023/04/15 04:37:17;;;;;;;20.05;14.32;;;;;;;;;;4947983;28;20051;-82
2023/04/15 04:39:43;;;;;;;17.35;13.25;;;;;;;;;;4971341;28;20039;-81
2023/04/15 04:42:09;;;;;;;18.98;13.57;;;;;;;;;;4973272;28;20125;-80
2023/04/15 04:44:36;;;;;;;18.35;13.95;;;;;;;;;;4951383;28;20063;-80
2023/04/15 04:47:02;;;;;;;19.00;13.55;;;;;;;;;;4941933;29;20051;-80
2023/04/15 04:49:28;;;;;;;20.35;13.48;;;;;;;;;;4951073;28;20073;-80
2023/04/15 04:51:54;;;;;;;18.08;14.60;;;;;;;;;;4971140;28;20043;-80
2023/04/15 04:54:20;;;;;;;20.08;14.35;;;;;;;;;;4948356;28;20042;-80
2023/04/15 04:56:46;;;;;;;18.60;13.95;;;;;;;;;;4946376;28;20046;-80
2023/04/15 04:59:12;;;;;;;17.67;13.57;;;;;;;;;;4965145;28;20050;-80
2023/04/15 05:01:38;;;;;;;19.77;13.75;;;;;;;;;;4942209;29;20488;-80
2023/04/15 05:04:06;;;;;;;19.13;13.63;;;;;;;;;;4964007;28;20439;-80
2023/04/15 05:06:32;;;;;;;17.85;12.93;;;;;;;;;;4969293;28;20049;-80
2023/04/15 05:08:58;;;;;;;20.83;13.73;;;;;;;;;;4971845;28;20051;-80
2023/04/15 05:11:24;;;;;;;21.25;14.52;;;;;;;;;;4971862;28;20043;-80
2023/04/15 05:13:50;;;;;;;18.95;13.52;;;;;;;;;;4973802;28;20125;-81
2023/04/15 05:16:18;;;;;;;17.40;13.65;;;;;;;;;;4970947;28;20046;-80
2023/04/15 05:18:44;;;;;;;17.48;13.52;;;;;;;;;;4964260;28;20054;-80
2023/04/15 05:21:11;;;;;;;17.33;13.50;;;;;;;;;;4966534;28;20039;-80
2023/04/15 05:23:37;;;;;;;18.27;13.60;;;;;;;;;;4969326;28;20038;-80
2023/04/15 05:26:03;;;;;;;18.60;13.45;;;;;;;;;;4943335;28;20038;-80
2023/04/15 05:28:29;;;;;;;16.95;13.88;;;;;;;;;;4970714;28;20142;-80
2023/04/15 05:30:55;;;;;;;19.55;13.52;;;;;;;;;;4965437;28;20498;-80
2023/04/15 05:33:22;;;;;;;16.75;13.13;;;;;;;;;;4967624;28;20383;-80
2023/04/15 05:35:48;;;;;;;18.27;13.73;;;;;;;;;;4966864;28;20418;-80
2023/04/15 05:38:14;;;;;;;18.88;14.65;;;;;;;;;;4969648;28;20034;-81
2023/04/15 05:40:40;;;;;;;19.98;14.68;;;;;;;;;;4951673;28;20067;-80
2023/04/15 05:43:06;;;;;;;19.00;14.10;;;;;;;;;;4970538;28;20059;-80
2023/04/15 05:45:32;;;;;;;18.90;14.38;;;;;;;;;;4964422;28;20039;-80
2023/04/15 05:47:58;;;;;;;19.85;14.82;;;;;;;;;;4959635;28;20444;-80
2023/04/15 05:50:24;;;;;;;22.17;15.30;;;;;;;;;;4966001;28;20126;-80
2023/04/15 05:52:50;;;;;;;18.40;14.20;;;;;;;;;;4969737;28;20078;-80
2023/04/15 05:55:16;;;;;;;18.45;14.35;;;;;;;;;;4949495;28;20055;-81
2023/04/15 05:57:42;;;;;;;20.40;13.98;;;;;;;;;;4944170;28;20061;-80
2023/04/15 06:00:09;;;;;;;19.20;13.82;;;;;;;;;;4971389;28;20502;-80
2023/04/15 06:02:35;;;;;;;18.13;13.57;;;;;;;;;;4965841;28;20047;-80
2023/04/15 06:05:01;;;;;;;18.45;13.48;;;;;;;;;;4954820;28;20411;-80
2023/04/15 06:07:27;;;;;;;18.95;14.07;;;;;;;;;;4965849;28;20047;-80
2023/04/15 06:09:53;;;;;;;16.45;12.50;;;;;;;;;;4961765;28;20118;-80
2023/04/15 06:12:19;;;;;;;16.17;12.35;;;;;;;;;;4958534;28;20109;-80
2023/04/15 06:14:45;;;;;;;16.80;12.88;;;;;;;;;;4963604;28;20047;-80
2023/04/15 06:17:13;;;;;;;16.52;12.32;;;;;;;;;;4970724;28;20054;-80
2023/04/15 06:19:39;;;;;;;14.80;10.95;;;;;;;;;;4946349;28;20058;-80
2023/04/15 06:22:06;;;;;;;14.23;10.90;;;;;;;;;;4956219;28;20042;-80
2023/04/15 06:24:32;;;;;;;13.43;10.50;;;;;;;;;;4969420;28;20487;-80
2023/04/15 06:26:58;;;;;;;13.02;9.75;;;;;;;;;;4956030;28;20043;-80
2023/04/15 06:29:24;;;;;;;13.00;9.82;;;;;;;;;;4964671;28;20039;-80
2023/04/15 06:31:50;;;;;;;12.77;9.70;;;;;;;;;;4971680;28;20049;-80
2023/04/15 06:34:19;;;;;;;13.80;9.35;;;;;;;;;;4970980;28;20035;-81
2023/04/15 06:36:45;;;;;;;14.07;9.75;;;;;;;;;;4954986;28;20071;-80
2023/04/15 06:39:11;;;;;;;13.45;8.52;;;;;;;;;;4968919;28;20114;-81
2023/04/15 06:41:37;;;;;;;11.27;8.52;;;;;;;;;;4971905;28;20487;-82
2023/04/15 06:44:03;;;;;;;12.27;8.80;;;;;;;;;;4968135;28;20594;-82
2023/04/15 06:46:29;;;;;;;12.00;8.38;;;;;;;;;;4969379;28;20059;-82
2023/04/15 06:48:55;;;;;;;13.00;8.00;;;;;;;;;;4971218;28;20039;-81
2023/04/15 06:51:22;;;;;;;11.63;8.57;;;;;;;;;;4968900;28;20050;-82
2023/04/15 06:53:49;;;;;;;10.07;8.48;;;;;;;;;;4951318;28;20057;-81
2023/04/15 06:56:15;;;;;;;12.07;9.35;;;;;;;;;;4956178;28;20059;-82
2023/04/15 06:58:41;;;;;;;13.57;9.40;;;;;;;;;;4970755;28;20057;-82
2023/04/15 07:01:07;;;;;;;13.45;10.30;;;;;;;;;;4971267;28;20134;-82
2023/04/15 07:03:33;;;;;;;15.60;11.88;;;;;;;;;;4957040;28;20130;-80
2023/04/15 07:06:00;;;;;;;16.25;10.73;;;;;;;;;;4967208;28;20125;-80
2023/04/15 07:08:26;;;;;;;16.40;11.73;;;;;;;;;;4956982;28;20155;-81
2023/04/15 07:10:53;;;;;;;18.55;12.40;;;;;;;;;;4975264;28;20047;-80
2023/04/15 07:13:19;;;;;;;16.52;11.25;;;;;;;;;;4973336;28;20043;-80
2023/04/15 07:15:45;;;;;;;15.35;12.55;;;;;;;;;;4970935;28;20471;-80
2023/04/15 07:18:11;;;;;;;16.55;11.48;;;;;;;;;;4953567;28;20034;-80
2023/04/15 07:20:37;;;;;;;16.98;12.35;;;;;;;;;;4976524;28;20050;-81
2023/04/15 07:23:03;;;;;;;18.38;12.23;;;;;;;;;;4973379;28;20038;-81
2023/04/15 07:25:29;;;;;;;16.65;11.30;;;;;;;;;;4957604;28;20050;-80
2023/04/15 07:27:55;;;;;;;19.02;12.52;;;;;;;;;;4969425;28;20491;-81
2023/04/15 07:30:22;;;;;;;14.85;11.98;;;;;;;;;;4943605;29;20051;-81
2023/04/15 07:32:48;;;;;;;16.98;12.23;;;;;;;;;;4957182;28;20039;-81
2023/04/15 07:35:14;;;;;;;20.13;13.90;;;;;;;;;;4974952;28;20047;-80
2023/04/15 07:37:42;;;;;;;19.83;13.30;;;;;;;;;;4952485;28;20051;-81
2023/04/15 07:40:08;;;;;;;18.52;13.50;;;;;;;;;;4979527;28;20502;-80
2023/04/15 07:42:35;;;;;;;19.15;13.82;;;;;;;;;;4961775;28;20057;-81
2023/04/15 07:45:01;;;;;;;19.17;14.13;;;;;;;;;;4977075;28;20057;-80
2023/04/15 07:47:27;;;;;;;19.27;13.43;;;;;;;;;;4978889;28;20047;-80
2023/04/15 07:49:53;;;;;;;18.70;13.10;;;;;;;;;;4974246;28;20042;-81
2023/04/15 07:52:19;;;;;;;19.80;12.63;;;;;;;;;;4962521;28;20050;-81
2023/04/15 07:54:45;;;;;;;17.05;11.70;;;;;;;;;;4955495;28;20050;-81
2023/04/15 07:57:11;;;;;;;15.68;11.30;;;;;;;;;;4957355;28;20494;-83
2023/04/15 07:59:37;;;;;;;16.45;10.95;;;;;;;;;;4970382;28;20046;-81
2023/04/15 08:02:03;;;;;;;18.77;12.15;;;;;;;;;;4968102;28;20043;-81
2023/04/15 08:04:29;;;;;;;19.92;12.27;;;;;;;;;;4970964;28;20053;-80
2023/04/15 08:06:56;;;;;;;19.15;12.30;;;;;;;;;;4965892;28;20079;-81
2023/04/15 08:09:22;;;;;;;19.30;11.85;;;;;;;;;;4967794;28;20047;-80
2023/04/15 08:11:52;;;;;;;18.17;11.68;;;;;;;;;;4968499;28;20487;-81
2023/04/15 08:14:18;;;;;;;16.00;10.90;;;;;;;;;;4962236;28;20042;-81
2023/04/15 08:16:43;;;;;;;15.60;10.13;;;;;;;;;;4965586;28;20065;-81
2023/04/15 08:19:13;;;;;;;21.92;9.93;;;;;;;;;;4964110;28;20039;-80
2023/04/15 08:21:39;;;;;;;14.65;8.98;;;;;;;;;;4952377;28;20047;-80
2023/04/15 08:24:06;;;;;;;12.75;8.05;;;;;;;;;;4971138;28;20038;-82
2023/04/15 08:26:32;;;;;;;10.52;7.50;;;;;;;;;;4963539;28;20550;-81
2023/04/15 08:28:58;;;;;;;11.20;7.75;;;;;;;;;;4954332;28;20084;-81
2023/04/15 08:31:26;;;;;;;12.10;8.15;;;;;;;;;;4967809;28;20571;-82
2023/04/15 08:33:53;;;;;;;11.52;8.10;;;;;;;;;;4970853;28;20042;-82
2023/04/15 08:36:19;;;;;;;11.20;7.68;;;;;;;;;;4970485;28;20055;-82
2023/04/15 08:38:45;;;;;;;10.63;7.63;;;;;;;;;;4974159;28;20074;-81
2023/04/15 08:41:17;;;;;;;13.52;8.32;;;;;;;;;;4974861;28;20049;-82
2023/04/15 08:43:47;;;;;;;10.18;7.25;;;;;;;;;;4955258;28;20097;-82
2023/04/15 08:46:13;;;;;;;13.32;8.02;;;;;;;;;;4952990;28;20105;-82
2023/04/15 08:48:39;;;;;;;12.68;8.32;;;;;;;;;;4966656;28;20125;-81
2023/04/15 08:51:07;;;;;;;10.73;7.57;;;;;;;;;;4968560;28;20050;-82
2023/04/15 08:53:34;;;;;;;12.55;7.70;;;;;;;;;;4960573;28;20121;-82
2023/04/15 08:56:02;;;;;;;11.75;7.00;;;;;;;;;;4966434;28;20058;-82
2023/04/15 08:58:29;;;;;;;10.73;7.40;;;;;;;;;;4968670;28;20129;-82
2023/04/15 09:00:56;;;;;;;11.50;7.15;;;;;;;;;;4952345;28;20554;-83
2023/04/15 09:03:23;;;;;;;11.00;7.38;;;;;;;;;;4968449;28;20074;-82
2023/04/15 09:05:50;;;;;;;12.55;7.70;;;;;;;;;;4968792;28;20070;-82
2023/04/15 09:08:16;;;;;;;11.70;8.18;;;;;;;;;;4953797;28;20055;-82
2023/04/15 09:10:42;;;;;;;11.90;7.90;;;;;;;;;;4941959;28;20229;-82
2023/04/15 09:13:08;;;;;;;10.95;7.00;;;;;;;;;;4968382;28;20050;-82
2023/04/15 09:15:37;;;;;;;9.98;7.05;;;;;;;;;;4969145;28;20402;-82
2023/04/15 09:18:03;;;;;;;9.85;6.63;;;;;;;;;;4970566;28;20047;-82
2023/04/15 09:20:29;;;;;;;8.93;6.45;;;;;;;;;;4967602;28;20042;-83
2023/04/15 09:22:56;;;;;;;8.93;6.22;;;;;;;;;;4963256;28;20066;-81
2023/04/15 09:25:22;;;;;;;11.00;6.63;;;;;;;;;;4967037;28;20125;-83
2023/04/15 09:27:48;;;;;;;10.48;6.60;;;;;;;;;;4948445;28;20696;-82
2023/04/15 09:30:15;;;;;;;11.00;6.65;;;;;;;;;;4962836;28;20047;-83
2023/04/15 09:33:09;;;;;;;10.98;6.18;;;;;;;;;;4970239;28;20142;-82
2023/04/15 09:35:36;;;;;;;9.05;6.50;;;;;;;;;;4951959;28;20050;-82
2023/04/15 09:38:08;;;;;;;8.85;6.07;;;;;;;;;;4969475;28;20129;-82
2023/04/15 09:40:36;;;;;;;11.40;6.22;;;;;;;;;;4948734;28;20541;-82
2023/04/15 09:43:03;;;;;;;10.07;6.40;;;;;;;;;;4969037;28;20058;-82
2023/04/15 09:45:30;;;;;;;10.63;5.85;;;;;;;;;;4941132;28;20113;-82
2023/04/15 09:47:57;;;;;;;8.27;5.95;;;;;;;;;;4950220;28;20043;-82
2023/04/15 09:50:26;;;;;;;7.82;5.47;;;;;;;;;;4969593;28;20107;-82
2023/04/15 09:52:52;;;;;;;7.72;5.47;;;;;;;;;;4963721;28;20043;-82
2023/04/15 09:55:18;;;;;;;10.30;6.40;;;;;;;;;;4968632;28;20057;-82
2023/04/15 09:57:48;;;;;;;8.20;6.20;;;;;;;;;;4970671;28;20039;-81
2023/04/15 10:00:15;;;;;;;7.78;5.60;;;;;;;;;;4966541;28;20569;-81
2023/04/15 10:02:41;;;;;;;9.63;5.18;;;;;;;;;;4948623;28;20718;-82
2023/04/15 10:05:10;;;;;;;7.18;4.95;;;;;;;;;;4965620;28;20039;-82
2023/04/15 10:07:39;;;;;;;9.77;5.50;;;;;;;;;;4948564;28;20499;-82
2023/04/15 10:10:08;;;;;;;6.43;4.55;;;;;;;;;;4948817;28;20050;-82
2023/04/15 10:12:36;;;;;;;8.52;5.10;;;;;;;;;;4971486;28;20053;-82
2023/04/15 10:15:04;;;;;;;7.93;5.10;;;;;;;;;;4966134;28;20082;-83
2023/04/15 10:17:35;;;;;;;7.57;5.25;;;;;;;;;;4952567;28;20054;-83
2023/04/15 10:20:03;;;;;;;6.65;4.85;;;;;;;;;;4970417;28;20035;-82
2023/04/15 10:22:30;;;;;;;7.38;4.60;;;;;;;;;;4950898;28;20054;-82
2023/04/15 10:24:56;;;;;;;7.55;4.30;;;;;;;;;;4968043;28;20081;-82
2023/04/15 10:27:23;;;;;;;8.10;3.70;;;;;;;;;;4970139;28;20049;-82
2023/04/15 10:29:50;;;;;;;8.48;4.00;;;;;;;;;;4968956;28;20049;-83
2023/04/15 10:32:20;;;;;;;6.03;4.57;;;;;;;;;;4968238;28;20061;-83
2023/04/15 10:34:46;;;;;;;6.00;4.13;;;;;;;;;;4960734;28;20039;-82
2023/04/15 10:37:12;;;;;;;7.45;3.92;;;;;;;;;;4968763;28;20031;-83
2023/04/15 10:39:40;;;;;;;5.70;4.20;;;;;;;;;;4970721;28;20088;-82
2023/04/15 10:42:07;;;;;;;7.53;4.05;;;;;;;;;;4969205;28;20468;-83
2023/04/15 10:44:33;;;;;;;7.28;4.43;;;;;;;;;;4952861;28;20394;-82
2023/04/15 10:46:59;;;;;;;9.32;3.90;;;;;;;;;;4969331;28;20440;-82
2023/04/15 10:49:25;;;;;;;10.25;3.70;;;;;;;;;;4954654;28;20806;-82
2023/04/15 10:51:53;;;;;;;7.18;3.58;;;;;;;;;;4974206;28;20043;-83
2023/04/15 10:54:25;;;;;;;5.75;3.42;;;;;;;;;;4971232;28;20042;-82
2023/04/15 10:57:00;;;;;;;5.30;3.60;;;;;;;;;;4949703;28;20167;-82
2023/04/15 10:59:35;;;;;;;9.05;3.35;;;;;;;;;;4954535;28;20634;-82
2023/04/15 11:02:02;;;;;;;4.57;2.92;;;;;;;;;;4951217;28;20051;-82
2023/04/15 11:04:46;;;;;;;6.13;3.38;;;;;;;;;;4971123;28;20058;-82
2023/04/15 11:07:13;;;;;;;6.55;3.70;;;;;;;;;;4951945;28;20046;-82
2023/04/15 11:09:39;;;;;;;5.10;3.45;;;;;;;;;;4967271;28;20131;-82
2023/04/15 11:12:09;;;;;;;6.25;3.60;;;;;;;;;;4963801;28;20043;-82
2023/04/15 11:14:40;;;;;;;5.90;3.08;;;;;;;;;;4951825;28;20055;-80
2023/04/15 11:17:06;;;;;;;6.18;3.20;;;;;;;;;;4951204;28;20588;-79
2023/04/15 11:19:36;;;;;;;8.25;3.25;;;;;;;;;;4972681;28;20507;-82
2023/04/15 11:22:09;;;;;;;4.43;3.42;;;;;;;;;;4961581;28;20093;-82
2023/04/15 11:24:36;;;;;;;7.70;3.65;;;;;;;;;;4977567;28;20050;-83
2023/04/15 11:27:02;;;;;;;4.15;2.83;;;;;;;;;;4980272;28;20046;-82
2023/04/15 11:29:30;;;;;;;11.57;2.78;;;;;;;;;;4973922;28;20062;-84
2023/04/15 11:32:06;;;;;;;5.03;2.95;;;;;;;;;;4970907;28;20187;-82
2023/04/15 11:34:32;;;;;;;13.05;4.53;;;;;;;;;;4970120;28;20052;-82
2023/04/15 11:36:58;;;;;;;3.78;2.63;;;;;;;;;;4970744;28;20112;-82
2023/04/15 11:39:24;;;;;;;5.45;3.13;;;;;;;;;;4953483;28;20122;-82
2023/04/15 11:41:50;;;;;;;4.82;2.60;;;;;;;;;;4971894;28;20062;-82
2023/04/15 11:44:17;;;;;;;3.45;2.75;;;;;;;;;;4971246;28;20209;-82
2023/04/15 11:49:30;;;;;;;4.93;2.50;;;;;;;;;;4969552;28;20182;-82
2023/04/15 11:51:56;;;;;;;4.55;2.83;;;;;;;;;;4955926;28;20058;-82
2023/04/15 11:54:22;;;;;;;6.00;3.08;;;;;;;;;;4946275;28;20483;-82
2023/04/15 11:56:53;;;;;;;7.30;3.30;;;;;;;;;;4954216;28;20050;-82
2023/04/15 11:59:19;;;;;;;5.63;3.00;;;;;;;;;;4949720;28;20082;-81
2023/04/15 12:01:46;;;;;;;9.02;3.15;;;;;;;;;;4968431;28;20047;-82
2023/04/15 12:04:12;;;;;;;5.30;2.97;;;;;;;;;;4961333;28;20105;-82
2023/04/15 12:06:38;;;;;;;4.60;2.50;;;;;;;;;;4947557;28;20518;-83
2023/04/15 12:09:09;;;;;;;4.15;2.53;;;;;;;;;;4943970;28;20054;-81
2023/04/15 12:11:38;;;;;;;5.53;2.22;;;;;;;;;;4947708;28;20133;-80
2023/04/15 12:14:07;;;;;;;5.63;2.47;;;;;;;;;;4959182;28;20034;-80
2023/04/15 12:16:34;;;;;;;4.07;2.30;;;;;;;;;;4972377;28;20570;-80
2023/04/15 12:19:00;;;;;;;5.15;2.65;;;;;;;;;;4940269;28;20089;-82
2023/04/15 12:21:28;;;;;;;9.18;2.85;;;;;;;;;;4965004;28;20065;-82
2023/04/15 12:23:57;;;;;;;9.32;2.88;;;;;;;;;;4961048;28;20131;-82
2023/04/15 12:26:31;;;;;;;5.85;2.60;;;;;;;;;;4948085;28;20082;-82
2023/04/15 12:29:04;;;;;;;7.35;2.67;;;;;;;;;;4959277;28;20047;-82
2023/04/15 12:31:30;;;;;;;;;;;;;;;;;;4969642;28;20046;-82
2023/04/15 12:33:58;;;;;;;10.25;3.10;;;;;;;;;;4940286;28;19980;-82
2023/04/15 12:36:24;;;;;;;5.97;2.22;;;;;;;;;;4961163;28;20047;-82
2023/04/15 12:38:50;;;;;;;6.32;2.40;;;;;;;;;;4969772;28;20550;-82
2023/04/15 12:41:16;;;;;;;7.50;2.67;;;;;;;;;;4961453;28;20047;-82
2023/04/15 12:43:44;;;;;;;6.80;2.55;;;;;;;;;;4945131;28;20065;-82
2023/04/15 12:46:10;;;;;;;8.20;2.80;;;;;;;;;;4963701;28;20043;-82
2023/04/15 12:48:36;;;;;;;8.90;2.45;;;;;;;;;;4971335;28;20589;-82
2023/04/15 12:51:02;;;;;;;6.50;2.58;;;;;;;;;;4950071;28;20039;-82
2023/04/15 12:53:28;;;;;;;11.38;3.10;;;;;;;;;;4961303;28;20057;-82
2023/04/15 12:55:55;;;;;;;7.60;2.90;;;;;;;;;;4959575;28;20046;-82
2023/04/15 12:58:21;;;;;;;4.88;2.00;;;;;;;;;;4956547;28;20479;-82
2023/04/15 13:00:48;;;;;;;7.15;2.63;;;;;;;;;;4964368;28;20558;-82
2023/04/15 13:03:14;;;;;;;9.98;3.00;;;;;;;;;;4951008;28;20047;-82
2023/04/15 13:05:40;;;;;;;5.60;2.60;;;;;;;;;;4972489;28;20050;-82
2023/04/15 13:08:06;;;;;;;9.93;2.50;;;;;;;;;;4947958;28;20054;-82
2023/04/15 13:10:35;;;;;;;10.23;2.95;;;;;;;;;;4968147;28;20043;-82
2023/04/15 13:13:01;;;;;;;6.00;2.60;;;;;;;;;;4962510;28;20046;-82
2023/04/15 13:15:27;;;;;;;5.07;2.05;;;;;;;;;;4966894;28;20078;-82
2023/04/15 13:17:54;;;;;;;7.75;2.30;;;;;;;;;;4952622;28;20475;-82
2023/04/15 13:20:20;;;;;;;11.07;3.05;;;;;;;;;;4960935;28;20042;-83
2023/04/15 13:22:46;;;;;;;9.45;2.65;;;;;;;;;;4971907;28;20051;-82
2023/04/15 13:25:12;;;;;;;10.23;2.47;;;;;;;;;;4940062;28;20113;-81
2023/04/15 13:27:38;;;;;;;10.85;2.70;;;;;;;;;;4947215;28;20495;-82
2023/04/15 13:30:05;;;;;;;6.80;2.75;;;;;;;;;;4961783;28;20428;-76
2023/04/15 13:32:31;;;;;;;6.78;2.55;;;;;;;;;;4970891;28;20039;-80
2023/04/15 13:34:57;;;;;;;10.77;2.90;;;;;;;;;;4971417;28;20066;-80
2023/04/15 13:37:27;;;;;;;10.70;3.05;;;;;;;;;;4969080;28;20051;-80
2023/04/15 13:39:53;;;;;;;11.13;2.88;;;;;;;;;;4948632;28;20034;-80
2023/04/15 13:42:19;;;;;;;12.65;3.05;;;;;;;;;;4972263;28;20105;-80
2023/04/15 13:44:45;;;;;;;9.07;2.75;;;;;;;;;;4970488;28;20171;-81
2023/04/15 13:47:12;;;;;;;10.10;2.83;;;;;;;;;;4952147;28;20047;-80
2023/04/15 13:49:38;;;;;;;10.90;2.40;;;;;;;;;;4950837;28;20051;-81
2023/04/15 13:52:04;;;;;;;8.95;2.72;;;;;;;;;;4946595;28;20759;-81
2023/04/15 13:54:30;;;;;;;9.02;2.40;;;;;;;;;;4967354;28;20458;-80
2023/04/15 13:56:56;;;;;;;12.15;3.38;;;;;;;;;;4967609;28;20046;-80
2023/04/15 13:59:22;;;;;;;6.53;2.35;;;;;;;;;;4962209;28;20043;-81
2023/04/15 14:01:49;;;;;;;7.43;2.75;;;;;;;;;;4961716;28;20050;-80
2023/04/15 14:04:15;;;;;;;10.60;2.80;;;;;;;;;;4966438;28;20348;-80
2023/04/15 14:06:41;;;;;;;8.05;2.50;;;;;;;;;;4938884;28;20056;-79
2023/04/15 14:09:07;;;;;;;9.68;2.58;;;;;;;;;;4962082;28;20046;-78
2023/04/15 14:11:35;;;;;;;7.35;2.72;;;;;;;;;;4964591;28;20047;-80
2023/04/15 14:14:01;;;;;;;12.18;2.83;;;;;;;;;;4959995;28;20042;-80
2023/04/15 14:16:27;;;;;;;9.85;2.40;;;;;;;;;;4949713;28;20059;-80
2023/04/15 14:18:53;;;;;;;10.48;2.67;;;;;;;;;;4954705;28;20071;-80
2023/04/15 14:21:20;;;;;;;6.93;2.35;;;;;;;;;;4965265;28;20525;-80
2023/04/15 14:23:46;;;;;;;8.65;2.63;;;;;;;;;;4973849;28;20130;-81
2023/04/15 14:26:12;;;;;;;8.02;2.97;;;;;;;;;;4965074;28;20398;-81
2023/04/15 14:28:38;;;;;;;12.05;3.03;;;;;;;;;;4949296;28;20057;-81